sensor_id;sensor_type;location;lat;lon;timestamp;pressure;altitude;pressure_sealevel;temperature;humidity
46392;BME280;32098;49.448;7.904;2023-04-10T00:01:51;98748.16;;;2.71;67.90
46392;BME280;32098;49.448;7.904;2023-04-10T00:04:18;98756.25;;;2.62;68.40
46392;BME280;32098;49.448;7.904;2023-04-10T00:06:44;98753.47;;;2.63;68.35
46392;BME280;32098;49.448;7.904;2023-04-10T00:09:11;98755.13;;;2.48;68.18
46392;BME280;32098;49.448;7.904;2023-04-10T00:11:38;98753.16;;;2.58;67.51
46392;BME280;32098;49.448;7.904;2023-04-10T00:14:04;98756.59;;;2.43;67.95
46392;BME280;32098;49.448;7.904;2023-04-10T00:16:31;98739.63;;;2.29;67.76
46392;BME280;32098;49.448;7.904;2023-04-10T00:18:57;98750.69;;;2.41;68.34
46392;BME280;32098;49.448;7.904;2023-04-10T00:21:24;98743.75;;;2.48;67.69
46392;BME280;32098;49.448;7.904;2023-04-10T00:23:51;98740.94;;;2.49;67.60
46392;BME280;32098;49.448;7.904;2023-04-10T00:26:18;98732.53;;;2.54;66.73
46392;BME280;32098;49.448;7.904;2023-04-10T00:28:46;98743.25;;;2.36;66.85
46392;BME280;32098;49.448;7.904;2023-04-10T00:31:13;98736.66;;;2.24;67.66
46392;BME280;32098;49.448;7.904;2023-04-10T00:33:39;98729.41;;;2.26;67.02
46392;BME280;32098;49.448;7.904;2023-04-10T00:36:06;98735.50;;;2.27;67.63
46392;BME280;32098;49.448;7.904;2023-04-10T00:38:32;98723.81;;;2.13;67.97
46392;BME280;32098;49.448;7.904;2023-04-10T00:40:59;98726.78;;;2.18;68.12
46392;BME280;32098;49.448;7.904;2023-04-10T00:43:26;98733.34;;;2.22;67.75
46392;BME280;32098;49.448;7.904;2023-04-10T00:45:52;98731.38;;;2.24;67.70
46392;BME280;32098;49.448;7.904;2023-04-10T00:48:19;98742.25;;;2.21;68.16
46392;BME280;32098;49.448;7.904;2023-04-10T00:50:46;98741.91;;;2.24;68.50
46392;BME280;32098;49.448;7.904;2023-04-10T00:53:12;98747.53;;;2.29;68.23
46392;BME280;32098;49.448;7.904;2023-04-10T00:55:39;98750.34;;;2.28;68.42
46392;BME280;32098;49.448;7.904;2023-04-10T00:58:06;98753.63;;;2.30;67.34
46392;BME280;32098;49.448;7.904;2023-04-10T01:00:33;98743.06;;;2.22;67.93
46392;BME280;32098;49.448;7.904;2023-04-10T01:02:59;98753.78;;;2.20;67.49
46392;BME280;32098;49.448;7.904;2023-04-10T01:05:31;98742.25;;;2.13;67.73
46392;BME280;32098;49.448;7.904;2023-04-10T01:11:01;98754.41;;;1.90;67.94
46392;BME280;32098;49.448;7.904;2023-04-10T01:13:42;98754.34;;;1.74;68.59
46392;BME280;32098;49.448;7.904;2023-04-10T01:16:35;98747.97;;;1.92;68.39
46392;BME280;32098;49.448;7.904;2023-04-10T01:21:37;98750.75;;;1.75;68.86
46392;BME280;32098;49.448;7.904;2023-04-10T01:24:16;98749.44;;;1.71;69.52
46392;BME280;32098;49.448;7.904;2023-04-10T01:27:15;98752.22;;;1.77;69.80
46392;BME280;32098;49.448;7.904;2023-04-10T01:29:51;98737.59;;;1.83;69.18
46392;BME280;32098;49.448;7.904;2023-04-10T01:32:21;98731.94;;;1.62;70.80
46392;BME280;32098;49.448;7.904;2023-04-10T01:34:54;98733.25;;;1.58;71.81
46392;BME280;32098;49.448;7.904;2023-04-10T01:37:24;98725.38;;;1.66;71.25
46392;BME280;32098;49.448;7.904;2023-04-10T01:39:58;98712.72;;;1.69;70.24
46392;BME280;32098;49.448;7.904;2023-04-10T01:42:30;98713.38;;;1.71;69.50
46392;BME280;32098;49.448;7.904;2023-04-10T01:44:58;98724.41;;;1.75;69.29
46392;BME280;32098;49.448;7.904;2023-04-10T01:47:26;98707.63;;;1.68;69.57
46392;BME280;32098;49.448;7.904;2023-04-10T01:49:55;98708.28;;;1.78;69.29
46392;BME280;32098;49.448;7.904;2023-04-10T01:52:23;98706.47;;;1.70;69.14
46392;BME280;32098;49.448;7.904;2023-04-10T01:55:01;98717.69;;;1.80;69.19
46392;BME280;32098;49.448;7.904;2023-04-10T01:57:38;98714.22;;;1.80;69.52
46392;BME280;32098;49.448;7.904;2023-04-10T02:00:05;98718.16;;;1.84;69.32
46392;BME280;32098;49.448;7.904;2023-04-10T02:02:40;98703.84;;;1.70;69.22
46392;BME280;32098;49.448;7.904;2023-04-10T02:05:09;98698.88;;;1.59;70.50
46392;BME280;32098;49.448;7.904;2023-04-10T02:07:49;98708.44;;;1.68;69.89
46392;BME280;32098;49.448;7.904;2023-04-10T02:10:28;98715.34;;;1.69;69.48
46392;BME280;32098;49.448;7.904;2023-04-10T02:13:04;98705.81;;;1.76;70.38
46392;BME280;32098;49.448;7.904;2023-04-10T02:15:33;98712.09;;;1.83;69.76
46392;BME280;32098;49.448;7.904;2023-04-10T02:18:01;98708.78;;;1.81;69.17
46392;BME280;32098;49.448;7.904;2023-04-10T02:20:30;98703.03;;;1.78;69.34
46392;BME280;32098;49.448;7.904;2023-04-10T02:22:59;98711.63;;;1.96;69.09
46392;BME280;32098;49.448;7.904;2023-04-10T02:25:33;98705.19;;;2.14;69.04
46392;BME280;32098;49.448;7.904;2023-04-10T02:28:04;98706.34;;;1.96;69.08
46392;BME280;32098;49.448;7.904;2023-04-10T02:30:30;98707.41;;;1.61;70.24
46392;BME280;32098;49.448;7.904;2023-04-10T02:32:59;98705.41;;;1.47;71.23
46392;BME280;32098;49.448;7.904;2023-04-10T02:35:27;98683.84;;;1.35;71.59
46392;BME280;32098;49.448;7.904;2023-04-10T02:37:54;98682.84;;;1.36;71.89
46392;BME280;32098;49.448;7.904;2023-04-10T02:40:22;98693.88;;;1.40;71.57
46392;BME280;32098;49.448;7.904;2023-04-10T02:43:07;98699.63;;;1.43;71.45
46392;BME280;32098;49.448;7.904;2023-04-10T02:45:35;98689.44;;;1.40;71.40
46392;BME280;32098;49.448;7.904;2023-04-10T02:48:04;98677.59;;;1.28;71.49
46392;BME280;32098;49.448;7.904;2023-04-10T02:50:30;98688.63;;;1.40;72.12
46392;BME280;32098;49.448;7.904;2023-04-10T02:52:58;98685.78;;;1.33;72.13
46392;BME280;32098;49.448;7.904;2023-04-10T02:55:25;98677.31;;;1.56;71.23
46392;BME280;32098;49.448;7.904;2023-04-10T02:57:51;98673.41;;;1.76;71.55
46392;BME280;32098;49.448;7.904;2023-04-10T03:00:18;98659.56;;;1.74;72.69
46392;BME280;32098;49.448;7.904;2023-04-10T03:03:10;98672.75;;;1.90;72.18
46392;BME280;32098;49.448;7.904;2023-04-10T03:05:43;98661.56;;;2.04;71.53
46392;BME280;32098;49.448;7.904;2023-04-10T03:08:16;98650.69;;;2.07;71.07
46392;BME280;32098;49.448;7.904;2023-04-10T03:10:44;98640.50;;;2.12;71.39
46392;BME280;32098;49.448;7.904;2023-04-10T03:13:11;98647.38;;;2.21;70.31
46392;BME280;32098;49.448;7.904;2023-04-10T03:15:37;98643.13;;;2.28;69.66
46392;BME280;32098;49.448;7.904;2023-04-10T03:18:04;98634.84;;;2.31;69.68
46392;BME280;32098;49.448;7.904;2023-04-10T03:20:35;98625.50;;;2.21;70.12
46392;BME280;32098;49.448;7.904;2023-04-10T03:23:05;98648.72;;;2.33;70.30
46392;BME280;32098;49.448;7.904;2023-04-10T03:25:33;98643.41;;;2.49;69.79
46392;BME280;32098;49.448;7.904;2023-04-10T03:28:01;98639.63;;;2.44;69.81
46392;BME280;32098;49.448;7.904;2023-04-10T03:30:29;98631.88;;;2.42;70.08
46392;BME280;32098;49.448;7.904;2023-04-10T03:32:56;98631.22;;;2.48;70.28
46392;BME280;32098;49.448;7.904;2023-04-10T03:35:22;98632.84;;;2.57;69.33
46392;BME280;32098;49.448;7.904;2023-04-10T03:37:49;98636.44;;;2.64;69.38
46392;BME280;32098;49.448;7.904;2023-04-10T03:40:15;98635.94;;;2.69;68.96
46392;BME280;32098;49.448;7.904;2023-04-10T03:42:42;98635.78;;;2.70;69.20
46392;BME280;32098;49.448;7.904;2023-04-10T03:45:09;98646.31;;;2.70;68.81
46392;BME280;32098;49.448;7.904;2023-04-10T03:47:36;98638.72;;;2.75;68.94
46392;BME280;32098;49.448;7.904;2023-04-10T03:50:06;98638.41;;;2.78;68.73
46392;BME280;32098;49.448;7.904;2023-04-10T03:52:40;98643.00;;;2.85;68.15
46392;BME280;32098;49.448;7.904;2023-04-10T03:55:11;98641.34;;;2.83;68.60
46392;BME280;32098;49.448;7.904;2023-04-10T03:57:38;98640.88;;;2.88;68.46
46392;BME280;32098;49.448;7.904;2023-04-10T04:00:05;98644.97;;;2.91;68.10
46392;BME280;32098;49.448;7.904;2023-04-10T04:02:45;98642.78;;;3.02;68.39
46392;BME280;32098;49.448;7.904;2023-04-10T04:05:19;98649.31;;;3.14;67.76
46392;BME280;32098;49.448;7.904;2023-04-10T04:08:04;98646.22;;;3.11;67.18
46392;BME280;32098;49.448;7.904;2023-04-10T04:10:38;98647.50;;;3.15;67.74
46392;BME280;32098;49.448;7.904;2023-04-10T04:13:16;98646.03;;;3.12;67.37
46392;BME280;32098;49.448;7.904;2023-04-10T04:16:04;98648.78;;;3.19;67.49
46392;BME280;32098;49.448;7.904;2023-04-10T04:18:42;98633.81;;;3.11;67.48
46392;BME280;32098;49.448;7.904;2023-04-10T04:21:20;98637.28;;;3.12;66.84
46392;BME280;32098;49.448;7.904;2023-04-10T04:24:05;98642.41;;;3.13;67.15
46392;BME280;32098;49.448;7.904;2023-04-10T04:26:50;98650.09;;;3.31;66.63
46392;BME280;32098;49.448;7.904;2023-04-10T04:29:32;98654.69;;;3.29;66.58
46392;BME280;32098;49.448;7.904;2023-04-10T04:32:15;98650.41;;;3.28;66.54
46392;BME280;32098;49.448;7.904;2023-04-10T04:34:55;98648.47;;;3.22;66.90
46392;BME280;32098;49.448;7.904;2023-04-10T04:37:51;98651.44;;;3.19;67.03
46392;BME280;32098;49.448;7.904;2023-04-10T04:40:37;98650.78;;;3.17;66.85
46392;BME280;32098;49.448;7.904;2023-04-10T04:43:22;98644.84;;;3.23;67.02
46392;BME280;32098;49.448;7.904;2023-04-10T04:46:05;98646.63;;;3.30;66.35
46392;BME280;32098;49.448;7.904;2023-04-10T04:48:52;98652.47;;;3.10;66.89
46392;BME280;32098;49.448;7.904;2023-04-10T04:51:24;98651.94;;;3.22;66.41
46392;BME280;32098;49.448;7.904;2023-04-10T04:54:01;98658.94;;;2.99;67.18
46392;BME280;32098;49.448;7.904;2023-04-10T04:56:39;98653.53;;;2.93;67.56
46392;BME280;32098;49.448;7.904;2023-04-10T04:59:20;98651.84;;;3.08;67.27
46392;BME280;32098;49.448;7.904;2023-04-10T05:02:13;98648.06;;;3.02;67.30
46392;BME280;32098;49.448;7.904;2023-04-10T05:05:04;98635.16;;;3.07;66.67
46392;BME280;32098;49.448;7.904;2023-04-10T05:07:57;98635.13;;;3.15;66.82
46392;BME280;32098;49.448;7.904;2023-04-10T05:10:40;98632.19;;;3.10;66.49
46392;BME280;32098;49.448;7.904;2023-04-10T05:13:11;98639.41;;;3.16;66.55
46392;BME280;32098;49.448;7.904;2023-04-10T05:16:01;98645.38;;;3.10;67.03
46392;BME280;32098;49.448;7.904;2023-04-10T05:18:51;98619.69;;;3.04;66.80
46392;BME280;32098;49.448;7.904;2023-04-10T05:21:38;98630.13;;;3.28;66.27
46392;BME280;32098;49.448;7.904;2023-04-10T05:24:21;98637.06;;;3.21;65.99
46392;BME280;32098;49.448;7.904;2023-04-10T05:27:07;98639.53;;;3.31;66.36
46392;BME280;32098;49.448;7.904;2023-04-10T05:29:56;98630.84;;;3.45;66.02
46392;BME280;32098;49.448;7.904;2023-04-10T05:32:45;98630.75;;;3.38;66.05
46392;BME280;32098;49.448;7.904;2023-04-10T05:35:47;98631.78;;;3.52;65.38
46392;BME280;32098;49.448;7.904;2023-04-10T05:38:31;98649.09;;;3.55;65.31
46392;BME280;32098;49.448;7.904;2023-04-10T05:41:29;98637.63;;;3.70;64.69
46392;BME280;32098;49.448;7.904;2023-04-10T05:44:05;98647.84;;;3.73;64.31
46392;BME280;32098;49.448;7.904;2023-04-10T05:46:52;98635.03;;;3.85;63.83
46392;BME280;32098;49.448;7.904;2023-04-10T05:49:26;98651.41;;;4.03;64.14
46392;BME280;32098;49.448;7.904;2023-04-10T05:52:10;98639.25;;;3.94;63.51
46392;BME280;32098;49.448;7.904;2023-04-10T05:54:49;98637.06;;;4.20;63.37
46392;BME280;32098;49.448;7.904;2023-04-10T05:57:49;98647.03;;;4.47;62.26
46392;BME280;32098;49.448;7.904;2023-04-10T06:00:35;98642.03;;;4.67;61.19
46392;BME280;32098;49.448;7.904;2023-04-10T06:03:25;98646.44;;;5.04;60.75
46392;BME280;32098;49.448;7.904;2023-04-10T06:06:00;98643.56;;;5.49;59.50
46392;BME280;32098;49.448;7.904;2023-04-10T06:08:29;98641.50;;;5.87;58.72
46392;BME280;32098;49.448;7.904;2023-04-10T06:10:56;98638.06;;;6.63;65.95
46392;BME280;32098;49.448;7.904;2023-04-10T06:13:22;98640.84;;;7.17;63.15
46392;BME280;32098;49.448;7.904;2023-04-10T06:15:53;98643.97;;;7.34;53.26
46392;BME280;32098;49.448;7.904;2023-04-10T06:18:20;98625.78;;;7.37;54.22
46392;BME280;32098;49.448;7.904;2023-04-10T06:20:46;98631.59;;;7.60;53.12
46392;BME280;32098;49.448;7.904;2023-04-10T06:23:13;98635.25;;;7.53;52.71
46392;BME280;32098;49.448;7.904;2023-04-10T06:25:40;98628.00;;;8.01;52.53
46392;BME280;32098;49.448;7.904;2023-04-10T06:28:07;98629.84;;;8.07;52.04
46392;BME280;32098;49.448;7.904;2023-04-10T06:30:34;98626.16;;;8.47;50.43
46392;BME280;32098;49.448;7.904;2023-04-10T06:33:05;98620.00;;;8.53;50.02
46392;BME280;32098;49.448;7.904;2023-04-10T06:35:34;98618.16;;;8.67;49.55
46392;BME280;32098;49.448;7.904;2023-04-10T06:38:02;98632.03;;;9.01;49.66
46392;BME280;32098;49.448;7.904;2023-04-10T06:40:31;98625.78;;;9.34;48.44
46392;BME280;32098;49.448;7.904;2023-04-10T06:42:59;98618.41;;;10.05;49.05
46392;BME280;32098;49.448;7.904;2023-04-10T06:45:33;98624.63;;;10.23;45.87
46392;BME280;32098;49.448;7.904;2023-04-10T06:47:59;98621.06;;;10.79;45.03
46392;BME280;32098;49.448;7.904;2023-04-10T06:50:26;98625.13;;;10.81;45.26
46392;BME280;32098;49.448;7.904;2023-04-10T06:52:52;98618.03;;;11.30;44.33
46392;BME280;32098;49.448;7.904;2023-04-10T06:55:21;98619.00;;;11.17;43.96
46392;BME280;32098;49.448;7.904;2023-04-10T06:57:47;98626.22;;;11.35;43.15
46392;BME280;32098;49.448;7.904;2023-04-10T07:00:14;98624.16;;;11.66;44.08
46392;BME280;32098;49.448;7.904;2023-04-10T07:02:40;98615.72;;;12.22;42.68
46392;BME280;32098;49.448;7.904;2023-04-10T07:05:07;98613.28;;;11.80;40.81
46392;BME280;32098;49.448;7.904;2023-04-10T07:07:34;98622.44;;;11.42;42.74
46392;BME280;32098;49.448;7.904;2023-04-10T07:10:01;98609.91;;;11.54;42.08
46392;BME280;32098;49.448;7.904;2023-04-10T07:12:28;98613.41;;;11.19;43.15
46392;BME280;32098;49.448;7.904;2023-04-10T07:14:54;98609.03;;;11.60;42.49
46392;BME280;32098;49.448;7.904;2023-04-10T07:17:21;98604.13;;;11.03;41.94
46392;BME280;32098;49.448;7.904;2023-04-10T07:19:47;98612.75;;;11.23;41.31
46392;BME280;32098;49.448;7.904;2023-04-10T07:22:14;98563.44;;;11.19;42.60
46392;BME280;32098;49.448;7.904;2023-04-10T07:24:41;98598.75;;;11.87;40.29
46392;BME280;32098;49.448;7.904;2023-04-10T07:27:07;98603.56;;;11.97;40.72
46392;BME280;32098;49.448;7.904;2023-04-10T07:29:34;98602.06;;;12.12;39.66
46392;BME280;32098;49.448;7.904;2023-04-10T07:32:00;98576.81;;;12.20;40.06
46392;BME280;32098;49.448;7.904;2023-04-10T07:34:27;98586.88;;;12.82;39.51
46392;BME280;32098;49.448;7.904;2023-04-10T07:36:54;98579.53;;;12.78;38.20
46392;BME280;32098;49.448;7.904;2023-04-10T07:39:20;98594.16;;;12.17;38.96
46392;BME280;32098;49.448;7.904;2023-04-10T07:41:47;98599.97;;;11.43;40.46
46392;BME280;32098;49.448;7.904;2023-04-10T07:44:13;98605.53;;;11.60;40.27
46392;BME280;32098;49.448;7.904;2023-04-10T07:46:40;98598.94;;;11.08;39.98
46392;BME280;32098;49.448;7.904;2023-04-10T07:49:07;98600.59;;;11.45;40.32
46392;BME280;32098;49.448;7.904;2023-04-10T07:51:34;98597.63;;;11.17;40.23
46392;BME280;32098;49.448;7.904;2023-04-10T07:54:02;98584.78;;;11.85;39.89
46392;BME280;32098;49.448;7.904;2023-04-10T07:56:28;98584.28;;;12.18;39.32
46392;BME280;32098;49.448;7.904;2023-04-10T07:58:58;98587.00;;;12.64;39.77
46392;BME280;32098;49.448;7.904;2023-04-10T08:01:26;98592.53;;;13.49;37.85
46392;BME280;32098;49.448;7.904;2023-04-10T08:03:54;98589.22;;;13.70;36.91
46392;BME280;32098;49.448;7.904;2023-04-10T08:06:22;98570.34;;;13.65;36.38
46392;BME280;32098;49.448;7.904;2023-04-10T08:08:48;98583.41;;;13.33;36.50
46392;BME280;32098;49.448;7.904;2023-04-10T08:11:27;98577.31;;;12.86;36.16
46392;BME280;32098;49.448;7.904;2023-04-10T08:13:56;98570.22;;;12.57;37.18
46392;BME280;32098;49.448;7.904;2023-04-10T08:16:24;98575.25;;;12.65;38.38
46392;BME280;32098;49.448;7.904;2023-04-10T08:18:53;98548.88;;;12.27;37.39
46392;BME280;32098;49.448;7.904;2023-04-10T08:21:21;98580.84;;;12.75;37.57
46392;BME280;32098;49.448;7.904;2023-04-10T08:23:51;98547.84;;;12.17;37.20
46392;BME280;32098;49.448;7.904;2023-04-10T08:26:18;98572.09;;;12.80;38.29
46392;BME280;32098;49.448;7.904;2023-04-10T08:28:51;98565.44;;;12.59;37.07
46392;BME280;32098;49.448;7.904;2023-04-10T08:31:19;98569.25;;;12.98;37.12
46392;BME280;32098;49.448;7.904;2023-04-10T08:33:47;98545.13;;;12.86;37.60
46392;BME280;32098;49.448;7.904;2023-04-10T08:36:14;98556.47;;;13.28;36.75
46392;BME280;32098;49.448;7.904;2023-04-10T08:38:44;98555.75;;;13.33;36.98
46392;BME280;32098;49.448;7.904;2023-04-10T08:41:15;98549.34;;;13.62;36.00
46392;BME280;32098;49.448;7.904;2023-04-10T08:43:42;98542.47;;;13.83;35.47
46392;BME280;32098;49.448;7.904;2023-04-10T08:46:11;98545.16;;;13.99;35.03
46392;BME280;32098;49.448;7.904;2023-04-10T08:48:57;98553.94;;;14.11;34.78
46392;BME280;32098;49.448;7.904;2023-04-10T08:51:31;98529.34;;;13.70;35.83
46392;BME280;32098;49.448;7.904;2023-04-10T08:54:05;98541.91;;;13.81;35.82
46392;BME280;32098;49.448;7.904;2023-04-10T08:56:32;98538.88;;;13.77;35.33
46392;BME280;32098;49.448;7.904;2023-04-10T08:59:03;98511.59;;;13.68;35.71
46392;BME280;32098;49.448;7.904;2023-04-10T09:01:30;98541.09;;;13.80;34.83
46392;BME280;32098;49.448;7.904;2023-04-10T09:03:57;98529.88;;;13.83;36.39
46392;BME280;32098;49.448;7.904;2023-04-10T09:06:24;98535.06;;;14.06;35.48
46392;BME280;32098;49.448;7.904;2023-04-10T09:08:51;98509.25;;;14.22;35.96
46392;BME280;32098;49.448;7.904;2023-04-10T09:11:18;98520.56;;;14.41;34.67
46392;BME280;32098;49.448;7.904;2023-04-10T09:13:44;98521.69;;;14.45;34.33
46392;BME280;32098;49.448;7.904;2023-04-10T09:16:12;98531.09;;;13.92;35.10
46392;BME280;32098;49.448;7.904;2023-04-10T09:18:42;98516.75;;;13.70;35.14
46392;BME280;32098;49.448;7.904;2023-04-10T09:21:10;98513.41;;;13.63;35.51
46392;BME280;32098;49.448;7.904;2023-04-10T09:23:37;98519.38;;;13.53;35.86
46392;BME280;32098;49.448;7.904;2023-04-10T09:26:30;98508.22;;;13.90;35.82
46392;BME280;32098;49.448;7.904;2023-04-10T09:28:58;98503.09;;;14.05;35.99
46392;BME280;32098;49.448;7.904;2023-04-10T09:31:27;98497.47;;;14.06;35.37
46392;BME280;32098;49.448;7.904;2023-04-10T09:34:15;98498.13;;;14.13;34.92
46392;BME280;32098;49.448;7.904;2023-04-10T09:36:56;98503.31;;;14.20;35.42
46392;BME280;32098;49.448;7.904;2023-04-10T09:39:34;98489.50;;;14.50;35.41
46392;BME280;32098;49.448;7.904;2023-04-10T09:42:01;98489.69;;;14.81;34.88
46392;BME280;32098;49.448;7.904;2023-04-10T09:44:33;98480.81;;;15.29;35.10
46392;BME280;32098;49.448;7.904;2023-04-10T09:47:19;98475.25;;;15.36;34.70
46392;BME280;32098;49.448;7.904;2023-04-10T09:49:54;98478.88;;;14.98;34.12
46392;BME280;32098;49.448;7.904;2023-04-10T09:52:26;98475.31;;;15.19;34.79
46392;BME280;32098;49.448;7.904;2023-04-10T09:54:54;98475.50;;;15.34;34.09
46392;BME280;32098;49.448;7.904;2023-04-10T09:57:22;98469.44;;;15.22;34.25
46392;BME280;32098;49.448;7.904;2023-04-10T09:59:57;98469.94;;;15.19;33.75
46392;BME280;32098;49.448;7.904;2023-04-10T10:02:25;98463.59;;;15.52;34.05
46392;BME280;32098;49.448;7.904;2023-04-10T10:04:54;98454.78;;;15.62;33.59
46392;BME280;32098;49.448;7.904;2023-04-10T10:07:22;98454.22;;;15.33;34.37
46392;BME280;32098;49.448;7.904;2023-04-10T10:09:50;98446.91;;;15.28;34.34
46392;BME280;32098;49.448;7.904;2023-04-10T10:12:58;98448.88;;;15.65;34.44
46392;BME280;32098;49.448;7.904;2023-04-10T10:15:51;98442.22;;;16.09;33.60
46392;BME280;32098;49.448;7.904;2023-04-10T10:18:38;98441.09;;;16.00;33.62
46392;BME280;32098;49.448;7.904;2023-04-10T10:21:09;98424.94;;;16.05;32.75
46392;BME280;32098;49.448;7.904;2023-04-10T10:23:36;98423.75;;;16.28;34.06
46392;BME280;32098;49.448;7.904;2023-04-10T10:26:04;98405.22;;;15.94;28.88
46392;BME280;32098;49.448;7.904;2023-04-10T10:28:32;98423.13;;;15.74;28.04
46392;BME280;32098;49.448;7.904;2023-04-10T10:31:01;98416.28;;;15.98;26.97
46392;BME280;32098;49.448;7.904;2023-04-10T10:33:28;98425.00;;;16.15;26.15
46392;BME280;32098;49.448;7.904;2023-04-10T10:35:59;98427.78;;;16.25;25.85
46392;BME280;32098;49.448;7.904;2023-04-10T10:38:26;98416.22;;;15.88;25.63
46392;BME280;32098;49.448;7.904;2023-04-10T10:41:12;98421.91;;;15.96;25.30
46392;BME280;32098;49.448;7.904;2023-04-10T10:43:52;98428.25;;;15.75;25.48
46392;BME280;32098;49.448;7.904;2023-04-10T10:46:34;98425.44;;;15.97;26.07
46392;BME280;32098;49.448;7.904;2023-04-10T10:49:02;98410.88;;;15.93;25.65
46392;BME280;32098;49.448;7.904;2023-04-10T10:51:48;98407.94;;;15.63;26.35
46392;BME280;32098;49.448;7.904;2023-04-10T10:54:32;98402.47;;;15.52;26.20
46392;BME280;32098;49.448;7.904;2023-04-10T10:56:59;98395.94;;;15.17;27.24
46392;BME280;32098;49.448;7.904;2023-04-10T11:02:15;98395.22;;;15.00;27.11
46392;BME280;32098;49.448;7.904;2023-04-10T11:04:43;98390.16;;;15.03;27.68
46392;BME280;32098;49.448;7.904;2023-04-10T11:07:10;98387.13;;;14.94;27.95
46392;BME280;32098;49.448;7.904;2023-04-10T11:09:48;98377.66;;;14.92;28.03
46392;BME280;32098;49.448;7.904;2023-04-10T11:12:19;98386.72;;;15.08;28.07
46392;BME280;32098;49.448;7.904;2023-04-10T11:14:59;98377.22;;;15.00;28.88
46392;BME280;32098;49.448;7.904;2023-04-10T11:17:49;98370.78;;;15.01;29.42
46392;BME280;32098;49.448;7.904;2023-04-10T11:20:17;98383.94;;;15.29;28.89
46392;BME280;32098;49.448;7.904;2023-04-10T11:23:20;98375.53;;;15.47;28.80
46392;BME280;32098;49.448;7.904;2023-04-10T11:25:51;98375.13;;;15.66;28.71
46392;BME280;32098;49.448;7.904;2023-04-10T11:28:44;98372.22;;;15.40;28.44
46392;BME280;32098;49.448;7.904;2023-04-10T11:31:21;98371.28;;;15.56;29.28
46392;BME280;32098;49.448;7.904;2023-04-10T11:36:17;98353.03;;;15.64;29.49
46392;BME280;32098;49.448;7.904;2023-04-10T11:38:54;98357.63;;;15.36;30.13
46392;BME280;32098;49.448;7.904;2023-04-10T11:41:32;98344.50;;;15.08;30.67
46392;BME280;32098;49.448;7.904;2023-04-10T11:44:00;98347.78;;;15.15;29.70
46392;BME280;32098;49.448;7.904;2023-04-10T11:46:28;98337.06;;;15.20;30.53
46392;BME280;32098;49.448;7.904;2023-04-10T11:48:59;98340.84;;;14.92;29.63
46392;BME280;32098;49.448;7.904;2023-04-10T11:51:26;98340.81;;;15.19;31.02
46392;BME280;32098;49.448;7.904;2023-04-10T11:54:11;98333.41;;;15.68;29.42
46392;BME280;32098;49.448;7.904;2023-04-10T11:56:39;98311.22;;;15.93;29.71
46392;BME280;32098;49.448;7.904;2023-04-10T11:59:07;98312.56;;;15.48;29.03
46392;BME280;32098;49.448;7.904;2023-04-10T12:01:39;98324.78;;;15.66;29.35
46392;BME280;32098;49.448;7.904;2023-04-10T12:04:19;98331.03;;;15.77;29.64
46392;BME280;32098;49.448;7.904;2023-04-10T12:06:47;98313.78;;;15.73;29.42
46392;BME280;32098;49.448;7.904;2023-04-10T12:09:15;98322.81;;;15.98;28.88
46392;BME280;32098;49.448;7.904;2023-04-10T12:12:02;98318.78;;;15.96;28.81
46392;BME280;32098;49.448;7.904;2023-04-10T12:14:33;98312.38;;;16.12;28.15
46392;BME280;32098;49.448;7.904;2023-04-10T12:17:02;98303.97;;;15.98;28.17
46392;BME280;32098;49.448;7.904;2023-04-10T12:19:29;98314.53;;;16.15;28.90
46392;BME280;32098;49.448;7.904;2023-04-10T12:21:57;98302.09;;;16.09;28.64
46392;BME280;32098;49.448;7.904;2023-04-10T12:24:51;98303.28;;;15.71;28.56
46392;BME280;32098;49.448;7.904;2023-04-10T12:27:23;98300.63;;;15.44;27.94
46392;BME280;32098;49.448;7.904;2023-04-10T12:29:53;98297.63;;;15.36;28.47
46392;BME280;32098;49.448;7.904;2023-04-10T12:32:20;98313.00;;;15.40;27.80
46392;BME280;32098;49.448;7.904;2023-04-10T12:34:51;98298.09;;;15.60;27.55
46392;BME280;32098;49.448;7.904;2023-04-10T12:37:19;98292.84;;;15.43;27.04
46392;BME280;32098;49.448;7.904;2023-04-10T12:39:45;98288.09;;;15.55;27.39
46392;BME280;32098;49.448;7.904;2023-04-10T12:42:17;98284.66;;;15.65;27.42
46392;BME280;32098;49.448;7.904;2023-04-10T12:44:55;98274.94;;;15.59;26.77
46392;BME280;32098;49.448;7.904;2023-04-10T12:47:23;98274.63;;;15.55;26.99
46392;BME280;32098;49.448;7.904;2023-04-10T12:50:10;98278.75;;;15.68;26.64
46392;BME280;32098;49.448;7.904;2023-04-10T12:52:44;98277.78;;;15.84;26.44
46392;BME280;32098;49.448;7.904;2023-04-10T12:55:11;98263.75;;;15.87;26.11
46392;BME280;32098;49.448;7.904;2023-04-10T12:57:46;98267.06;;;16.04;27.06
46392;BME280;32098;49.448;7.904;2023-04-10T13:00:17;98251.41;;;15.91;27.47
46392;BME280;32098;49.448;7.904;2023-04-10T13:02:45;98257.84;;;15.85;27.95
46392;BME280;32098;49.448;7.904;2023-04-10T13:05:13;98251.97;;;15.98;28.04
46392;BME280;32098;49.448;7.904;2023-04-10T13:07:40;98241.53;;;16.21;28.40
46392;BME280;32098;49.448;7.904;2023-04-10T13:10:07;98229.41;;;16.19;27.05
46392;BME280;32098;49.448;7.904;2023-04-10T13:12:34;98224.03;;;16.29;27.17
46392;BME280;32098;49.448;7.904;2023-04-10T13:15:01;98229.38;;;16.14;27.10
46392;BME280;32098;49.448;7.904;2023-04-10T13:17:28;98211.06;;;16.11;27.37
46392;BME280;32098;49.448;7.904;2023-04-10T13:19:55;98221.34;;;16.29;27.51
46392;BME280;32098;49.448;7.904;2023-04-10T13:22:21;98236.22;;;16.42;26.75
46392;BME280;32098;49.448;7.904;2023-04-10T13:24:48;98231.06;;;16.35;25.80
46392;BME280;32098;49.448;7.904;2023-04-10T13:27:14;98228.94;;;16.42;25.92
46392;BME280;32098;49.448;7.904;2023-04-10T13:29:41;98214.88;;;16.35;25.44
46392;BME280;32098;49.448;7.904;2023-04-10T13:32:08;98220.84;;;16.37;25.03
46392;BME280;32098;49.448;7.904;2023-04-10T13:34:35;98221.97;;;16.41;25.26
46392;BME280;32098;49.448;7.904;2023-04-10T13:37:01;98205.16;;;16.34;25.20
46392;BME280;32098;49.448;7.904;2023-04-10T13:39:29;98209.25;;;16.37;25.18
46392;BME280;32098;49.448;7.904;2023-04-10T13:41:59;98206.28;;;16.33;25.52
46392;BME280;32098;49.448;7.904;2023-04-10T13:44:27;98201.97;;;16.37;25.82